MSC Paola — 9HA2581 — position and weather

sailwx.info

Track history (hours):
 
Tides and Currents Weather Stations Pressure Air Temp Water Temp Dewpoint Dewpoint Depression Visibility Wind Speed Wind Dir Waves Ship Positions

MSC Paola

Last reported at 2015-Feb-06 20:18 UTC. Time now 2015-Mar-01 02:59 UTC.
Position N 02°03' E 102°08'.
Warning: this ship's position is 22 days out of date.

Length 243 m; draft 11.8 m.

Type: Ship (hazmat cat A). MMSI: 248931000.

Date/timePositionNaut miles runAvg speedWind from/ knotsBaromVisibWave heightAir tempDewpointWater temp
2015-Feb-06 20:18N 02°03' E 102°08'1316.7
2015-Feb-06 19:31N 01°55' E 102°19'1616.5
2015-Feb-06 18:33N 01°49' E 102°34'7614.2
2015-Feb-06 13:12N 01°13' E 103°41'6 9.5
2015-Feb-06 12:33N 01°16' E 103°46'0 0.0
2015-Feb-06 09:20N 01°16' E 103°46'0 0.0
2015-Feb-06 07:29N 01°16' E 103°46'0 0.0
2015-Feb-06 06:29N 01°16' E 103°46'0 0.0
2015-Feb-06 05:29N 01°16' E 103°46'0 0.0
2015-Feb-06 04:29N 01°16' E 103°46'0 0.0
2015-Feb-06 03:14N 01°16' E 103°46'0 0.0
2015-Feb-06 02:32N 01°16' E 103°46'0 0.0
2015-Feb-06 01:32N 01°16' E 103°46'0 0.0
2015-Feb-06 00:29N 01°16' E 103°46'0 0.0
2015-Feb-05 23:26N 01°16' E 103°46'0 0.0
2015-Feb-05 22:32N 01°16' E 103°46'0 0.0
2015-Feb-05 21:32N 01°16' E 103°46'0 0.0
2015-Feb-05 20:21N 01°16' E 103°46'0 0.0
2015-Feb-05 19:20N 01°16' E 103°46'0 0.0
2015-Feb-05 18:26N 01°16' E 103°46'0 0.0
2015-Feb-05 17:32N 01°16' E 103°46'0 0.0
2015-Feb-05 15:32N 01°16' E 103°46'0 0.0
2015-Feb-05 13:32N 01°16' E 103°46'0 0.0
2015-Feb-05 11:28N 01°16' E 103°46'0 0.1
2015-Feb-05 10:32N 01°16' E 103°46'6 6.0
2015-Feb-05 09:32N 01°13' E 103°51'5 4.9
2015-Feb-05 08:28N 01°17' E 103°54'0 0.1
2015-Feb-05 07:28N 01°17' E 103°54'0 0.0
2015-Feb-05 05:28N 01°17' E 103°54'0 0.1
2015-Feb-05 04:28N 01°17' E 103°54'0 0.0
2015-Feb-05 03:04N 01°17' E 103°54'0 0.0
2015-Feb-05 01:22N 01°17' E 103°54'0 0.0
2015-Feb-05 00:28N 01°17' E 103°54'0 0.0
2015-Feb-04 23:16N 01°17' E 103°54'0 0.0
2015-Feb-04 22:28N 01°17' E 103°54'0 0.1
2015-Feb-04 21:28N 01°17' E 103°54'0 0.1
2015-Feb-04 20:22N 01°17' E 103°54'0 0.1
2015-Feb-04 19:16N 01°17' E 103°54'0 0.1
2015-Feb-04 18:28N 01°17' E 103°54'0 0.0
2015-Feb-04 17:10N 01°17' E 103°54'0 0.0
2015-Feb-04 16:22N 01°17' E 103°54'0 0.0
2015-Feb-04 14:25N 01°17' E 103°54'0 0.0
2015-Feb-04 13:13N 01°17' E 103°54'0 0.0
2015-Feb-04 11:28N 01°17' E 103°54'0 0.1
2015-Feb-04 10:28N 01°17' E 103°54'0 0.1
2015-Feb-04 09:16N 01°17' E 103°54'0 0.0
2015-Feb-04 08:16N 01°17' E 103°54'0 0.1
2015-Feb-04 07:04N 01°17' E 103°54'0 0.0
2015-Feb-04 06:16N 01°17' E 103°54'0 0.1
2015-Feb-04 05:28N 01°17' E 103°54'0 0.0
2015-Feb-04 03:16N 01°17' E 103°54'0 0.0
2015-Feb-04 02:33N 01°17' E 103°54'0 0.1
2015-Feb-04 01:21N 01°17' E 103°54'0 0.0
2015-Feb-04 00:27N 01°17' E 103°54'0 0.0
2015-Feb-03 23:21N 01°17' E 103°54'0 0.0
2015-Feb-03 22:15N 01°17' E 103°54'0 0.1
2015-Feb-03 21:33N 01°17' E 103°54'0 0.0
2015-Feb-03 20:34N 01°17' E 103°54'3 2.8
2015-Feb-03 19:34N 01°14' E 103°53'7 0.3
2015-Feb-02 22:13N 01°15' E 103°47'2 1.3
2015-Feb-02 20:26N 01°13' E 103°48'6 6.5
2015-Feb-02 19:33N 01°14' E 103°54'7 7.2
2015-Feb-02 18:33N 01°16' E 104°01'9 8.9
2015-Feb-02 17:32N 01°17' E 104°10'  
Track history (hours):
 
Tides and Currents Weather Stations Pressure Air Temp Water Temp Dewpoint Dewpoint Depression Visibility Wind Speed Wind Dir Waves Ship Positions

MSC Paola

Last reported at 2015-Feb-06 20:18 UTC. Time now 2015-Mar-01 02:59 UTC.
Position N 02°03' E 102°08'.
Warning: this ship's position is 22 days out of date.

Length 243 m; draft 11.8 m.

Type: Ship (hazmat cat A). MMSI: 248931000.

Date/timePositionNaut miles runAvg speedWind from/ knotsBaromVisibWave heightAir tempDewpointWater temp
2015-Feb-06 20:18N 02°03' E 102°08'1316.7
2015-Feb-06 19:31N 01°55' E 102°19'1616.5
2015-Feb-06 18:33N 01°49' E 102°34'7614.2
2015-Feb-06 13:12N 01°13' E 103°41'6 9.5
2015-Feb-06 12:33N 01°16' E 103°46'0 0.0
2015-Feb-06 09:20N 01°16' E 103°46'0 0.0
2015-Feb-06 07:29N 01°16' E 103°46'0 0.0
2015-Feb-06 06:29N 01°16' E 103°46'0 0.0
2015-Feb-06 05:29N 01°16' E 103°46'0 0.0
2015-Feb-06 04:29N 01°16' E 103°46'0 0.0
2015-Feb-06 03:14N 01°16' E 103°46'0 0.0
2015-Feb-06 02:32N 01°16' E 103°46'0 0.0
2015-Feb-06 01:32N 01°16' E 103°46'0 0.0
2015-Feb-06 00:29N 01°16' E 103°46'0 0.0
2015-Feb-05 23:26N 01°16' E 103°46'0 0.0
2015-Feb-05 22:32N 01°16' E 103°46'0 0.0
2015-Feb-05 21:32N 01°16' E 103°46'0 0.0
2015-Feb-05 20:21N 01°16' E 103°46'0 0.0
2015-Feb-05 19:20N 01°16' E 103°46'0 0.0
2015-Feb-05 18:26N 01°16' E 103°46'0 0.0
2015-Feb-05 17:32N 01°16' E 103°46'0 0.0
2015-Feb-05 15:32N 01°16' E 103°46'0 0.0
2015-Feb-05 13:32N 01°16' E 103°46'0 0.0
2015-Feb-05 11:28N 01°16' E 103°46'0 0.1
2015-Feb-05 10:32N 01°16' E 103°46'6 6.0
2015-Feb-05 09:32N 01°13' E 103°51'5 4.9
2015-Feb-05 08:28N 01°17' E 103°54'0 0.1
2015-Feb-05 07:28N 01°17' E 103°54'0 0.0
2015-Feb-05 05:28N 01°17' E 103°54'0 0.1
2015-Feb-05 04:28N 01°17' E 103°54'0 0.0
2015-Feb-05 03:04N 01°17' E 103°54'0 0.0
2015-Feb-05 01:22N 01°17' E 103°54'0 0.0
2015-Feb-05 00:28N 01°17' E 103°54'0 0.0
2015-Feb-04 23:16N 01°17' E 103°54'0 0.0
2015-Feb-04 22:28N 01°17' E 103°54'0 0.1
2015-Feb-04 21:28N 01°17' E 103°54'0 0.1
2015-Feb-04 20:22N 01°17' E 103°54'0 0.1
2015-Feb-04 19:16N 01°17' E 103°54'0 0.1
2015-Feb-04 18:28N 01°17' E 103°54'0 0.0
2015-Feb-04 17:10N 01°17' E 103°54'0 0.0
2015-Feb-04 16:22N 01°17' E 103°54'0 0.0
2015-Feb-04 14:25N 01°17' E 103°54'0 0.0
2015-Feb-04 13:13N 01°17' E 103°54'0 0.0
2015-Feb-04 11:28N 01°17' E 103°54'0 0.1
2015-Feb-04 10:28N 01°17' E 103°54'0 0.1
2015-Feb-04 09:16N 01°17' E 103°54'0 0.0
2015-Feb-04 08:16N 01°17' E 103°54'0 0.1
2015-Feb-04 07:04N 01°17' E 103°54'0 0.0
2015-Feb-04 06:16N 01°17' E 103°54'0 0.1
2015-Feb-04 05:28N 01°17' E 103°54'0 0.0
2015-Feb-04 03:16N 01°17' E 103°54'0 0.0
2015-Feb-04 02:33N 01°17' E 103°54'0 0.1
2015-Feb-04 01:21N 01°17' E 103°54'0 0.0
2015-Feb-04 00:27N 01°17' E 103°54'0 0.0
2015-Feb-03 23:21N 01°17' E 103°54'0 0.0
2015-Feb-03 22:15N 01°17' E 103°54'0 0.1
2015-Feb-03 21:33N 01°17' E 103°54'0 0.0
2015-Feb-03 20:34N 01°17' E 103°54'3 2.8
2015-Feb-03 19:34N 01°14' E 103°53'7 0.3
2015-Feb-02 22:13N 01°15' E 103°47'2 1.3
2015-Feb-02 20:26N 01°13' E 103°48'6 6.5
2015-Feb-02 19:33N 01°14' E 103°54'7 7.2
2015-Feb-02 18:33N 01°16' E 104°01'9 8.9
2015-Feb-02 17:32N 01°17' E 104°10'  

Dump ship's entire track history